TimeCST,TemperatureF,Dew PointF,Humidity,Sea Level PressureIn,VisibilityMPH,Wind Direction,Wind SpeedMPH,Gust SpeedMPH,PrecipitationIn,Events,Conditions,WindDirDegrees,DateUTC
12:54 AM,30.9,19.9,64,29.94,10.0,South,3.5,-,N/A,,Clear,180,2011-11-11 06:54:00
1:54 AM,26.1,18.0,71,29.90,10.0,SSE,8.1,-,N/A,,Clear,160,2011-11-11 07:54:00
3:54 AM,27.0,19.9,75,29.83,10.0,South,5.8,-,N/A,,Clear,190,2011-11-11 09:54:00
4:54 AM,27.0,19.9,75,29.81,10.0,South,8.1,-,N/A,,Clear,170,2011-11-11 10:54:00
5:54 AM,27.0,19.9,75,29.79,10.0,South,6.9,-,N/A,,Clear,170,2011-11-11 11:54:00
6:54 AM,24.1,18.0,77,29.80,10.0,South,5.8,-,N/A,,Clear,180,2011-11-11 12:54:00
7:54 AM,27.0,21.0,78,29.81,8.0,South,5.8,-,N/A,,Clear,170,2011-11-11 13:54:00
9:54 AM,43.0,28.0,56,29.78,10.0,WSW,4.6,-,N/A,,Clear,250,2011-11-11 15:54:00
10:54 AM,50.0,27.0,41,29.78,10.0,WNW,5.8,-,N/A,,Clear,290,2011-11-11 16:54:00
11:54 AM,57.0,26.1,30,29.75,10.0,West,4.6,-,N/A,,Clear,280,2011-11-11 17:54:00
12:54 PM,61.0,25.0,25,29.73,10.0,West,3.5,-,N/A,,Clear,270,2011-11-11 18:54:00
1:54 PM,64.9,23.0,20,29.70,10.0,WSW,9.2,-,N/A,,Clear,250,2011-11-11 19:54:00
2:54 PM,66.9,21.9,18,29.69,10.0,West,15.0,-,N/A,,Clear,260,2011-11-11 20:54:00
3:54 PM,66.9,21.0,17,29.70,5.0,West,10.4,-,N/A,,Haze,260,2011-11-11 21:54:00
5:54 PM,48.0,21.9,36,29.70,7.0,South,6.9,-,N/A,,Clear,170,2011-11-11 23:54:00
6:54 PM,42.1,21.9,45,29.72,10.0,South,9.2,-,N/A,,Clear,190,2011-11-12 00:54:00
7:54 PM,41.0,21.0,45,29.72,10.0,South,8.1,-,N/A,,Clear,190,2011-11-12 01:54:00
8:54 PM,39.9,24.1,53,29.70,10.0,South,6.9,-,N/A,,Clear,170,2011-11-12 02:54:00
9:54 PM,37.0,25.0,62,29.70,10.0,SSE,6.9,-,N/A,,Clear,160,2011-11-12 03:54:00
10:54 PM,35.1,25.0,67,29.68,10.0,South,10.4,-,N/A,,Clear,170,2011-11-12 04:54:00